Kobuk Valley National Park, AK

10:16 PM AKDT op 29 mei 2015 (GMT -0800)
Noatak | | Change Station
CLOSE
Current Station
Luchthaven
Location: Noatak,
Geometrische hoogte: 85 ft
Nabije weerstations

Hoogte 85 ft 67.57 °N, 162.98 °W | Updated 20 minutes ago

Clear
Helder
61 °F
Voelt als 61 °F
N
12
Wind Variabel Wind van NW

Vandaag
Hoog -- | Laag -- °F
--% Kans op neerslag
Gisteren
Hoog -- | Laag -- °F
Precip. -- inches
2:46 AM 2:06 AM
Wassende maan, 88% visible
Druk 30.14 inches
Zicht 10.0 mijlen
Wolken Helder
Dauwpunt 37 °F
Vochtigheid 42%
Neerslag 0.00 inches
Dikte sneeuw Niet beschikbaar.
UV 1 van de 12
Pollen Niet beschikbaar.
Luchtkwaliteit Niet beschikbaar.
Flu Activity Sporadic
METAR PAWN 300556Z AUTO 31010KT 10SM CLR 16/03 A3014 RMK AO1 10180 20160 57007

More Conditions Fewer Conditions

Druk 30.14 inches
Zicht 10.0 mijlen
Wolken Helder
Dauwpunt 37 °F
Vochtigheid 42%
Neerslag 0.00 inches
Dikte sneeuw Niet beschikbaar.
UV 1 van de 12
Pollen Niet beschikbaar.
Luchtkwaliteit Niet beschikbaar.
Flu Activity Sporadic
METAR PAWN 300556Z AUTO 31010KT 10SM CLR 16/03 A3014 RMK AO1 10180 20160 57007

More Conditions Fewer Conditions

10-Day Weather Forecast

Almanac

Astronomie

May. 29, 2015 Opkomst Ondergang
Werkelijke tijd
Burgerlijke schemering
Nautische schemering
Astronomische schemering
Maan
Golflengte van het zichtbare licht
Daglengte
Tomorrow will be .
, % of the Moon is Illuminated

Extremen vandaag

State Highs State Lows

Community

WunderPhotos

Upload Photos

1,825,472 foto’s ge-upload!

WunderBlogs® & News

Nearby

Luchtkwaliteit

  Luchtkwaliteit LK-index Verontreinigende stof
Not available.

Dikte sneeuw

Station Depth Geometrische hoogte

Aardbevingen

Stad Distance Mag. Time & Date
Minimum magnitude displayed is 2.5.

Watertemperatuur langs de kust

Plaats Temperatuur

Stations

Nabije weerstations

Locatie station Temp. Gevoelstemperatuur Dauwpunt Vochtigheid Wind Precip. Hoogte Geactualiseerd Type